createdAt,value
2023-05-21T00:02:20.048Z,14.82
2023-05-21T00:04:47.889Z,14.79
2023-05-21T00:07:15.677Z,14.70
2023-05-21T00:09:42.742Z,14.74
2023-05-21T00:12:10.377Z,14.72
2023-05-21T00:14:37.627Z,14.71
2023-05-21T00:17:05.010Z,14.69
2023-05-21T00:19:33.943Z,14.66
2023-05-21T00:22:04.645Z,14.61
2023-05-21T00:24:31.915Z,14.53
2023-05-21T00:26:58.961Z,14.50
2023-05-21T00:29:27.894Z,14.48
2023-05-21T00:31:56.017Z,14.45
2023-05-21T00:34:23.426Z,14.41
2023-05-21T00:36:50.586Z,14.41
2023-05-21T00:39:17.886Z,14.37
2023-05-21T00:41:46.836Z,14.34
2023-05-21T00:44:14.205Z,14.34
2023-05-21T00:46:41.744Z,14.30
2023-05-21T00:49:11.861Z,14.28
2023-05-21T00:51:39.013Z,14.25
2023-05-21T00:54:06.140Z,14.25
2023-05-21T00:56:33.383Z,14.21
2023-05-21T00:59:00.597Z,14.17
2023-05-21T01:01:27.934Z,14.18
2023-05-21T01:03:58.073Z,14.15
2023-05-21T01:06:25.211Z,14.11
2023-05-21T01:08:52.410Z,14.09
2023-05-21T01:11:21.770Z,14.11
2023-05-21T01:13:50.318Z,14.06
2023-05-21T01:16:17.973Z,14.03
2023-05-21T01:18:45.462Z,14.02
2023-05-21T01:21:14.040Z,13.98
2023-05-21T01:23:41.209Z,13.99
2023-05-21T01:26:08.657Z,13.95
2023-05-21T01:28:35.807Z,13.96
2023-05-21T01:31:31.857Z,14.01
2023-05-21T01:34:03.589Z,13.92
2023-05-21T01:36:36.669Z,13.90
2023-05-21T01:39:14.494Z,13.86
2023-05-21T01:41:45.224Z,13.81
2023-05-21T01:44:13.684Z,13.79
2023-05-21T01:46:40.787Z,13.86
2023-05-21T01:49:08.840Z,13.82
2023-05-21T01:51:36.362Z,13.77
2023-05-21T01:54:03.783Z,13.75
2023-05-21T01:56:33.998Z,13.70
2023-05-21T01:59:01.227Z,13.73
2023-05-21T02:01:30.579Z,13.74
2023-05-21T02:03:58.448Z,13.71
2023-05-21T02:06:25.654Z,13.69
2023-05-21T02:08:52.724Z,13.68
2023-05-21T02:11:19.828Z,13.73
2023-05-21T02:13:46.910Z,13.72
2023-05-21T02:16:16.106Z,13.76
2023-05-21T02:18:47.162Z,13.78
2023-05-21T02:21:14.192Z,13.72
2023-05-21T02:23:42.313Z,13.71
2023-05-21T02:26:09.361Z,13.69
2023-05-21T02:28:36.600Z,13.65
2023-05-21T02:31:04.137Z,13.61
2023-05-21T02:33:31.318Z,13.52
2023-05-21T02:35:58.511Z,13.51
2023-05-21T02:38:26.138Z,13.50
2023-05-21T02:40:53.421Z,13.49
2023-05-21T02:43:20.721Z,13.52
2023-05-21T02:45:48.077Z,13.54
2023-05-21T02:48:15.225Z,13.54
2023-05-21T02:50:42.349Z,13.53
2023-05-21T02:53:09.476Z,13.52
2023-05-21T02:55:36.823Z,13.49
2023-05-21T02:58:04.196Z,13.46
2023-05-21T03:00:31.347Z,13.52
2023-05-21T03:02:58.493Z,13.52
2023-05-21T03:05:26.029Z,13.57
2023-05-21T03:07:53.578Z,13.49
2023-05-21T03:10:20.779Z,13.39
2023-05-21T03:12:47.970Z,13.38
2023-05-21T03:15:15.081Z,13.29
2023-05-21T03:17:42.621Z,13.29
2023-05-21T03:20:16.412Z,13.26
2023-05-21T03:22:44.723Z,13.24
2023-05-21T03:25:12.839Z,13.22
2023-05-21T03:27:40.045Z,13.16
2023-05-21T03:30:07.832Z,13.10
2023-05-21T03:32:38.142Z,13.09
2023-05-21T03:35:06.048Z,13.10
2023-05-21T03:37:33.129Z,13.13
2023-05-21T03:40:00.267Z,13.16
2023-05-21T03:42:27.408Z,13.15
2023-05-21T03:44:54.608Z,13.17
2023-05-21T03:47:21.724Z,13.19
2023-05-21T03:49:48.834Z,13.27
2023-05-21T03:52:15.984Z,13.27
2023-05-21T03:54:43.110Z,13.30
2023-05-21T03:57:10.157Z,13.34
2023-05-21T03:59:37.225Z,13.33
2023-05-21T04:02:04.688Z,13.30
2023-05-21T04:04:33.953Z,13.27
2023-05-21T04:07:01.194Z,13.28
2023-05-21T04:09:28.263Z,13.25
2023-05-21T04:11:55.502Z,13.22
2023-05-21T04:14:23.497Z,13.15
2023-05-21T04:16:50.620Z,13.25
2023-05-21T04:19:17.739Z,13.22
2023-05-21T04:21:45.203Z,13.17
2023-05-21T04:24:12.304Z,13.18
2023-05-21T04:26:42.552Z,13.18
2023-05-21T04:29:10.191Z,13.21
2023-05-21T04:31:37.403Z,13.21
2023-05-21T04:34:05.220Z,13.15
2023-05-21T04:36:33.969Z,13.14
2023-05-21T04:39:01.761Z,13.12
2023-05-21T04:41:29.323Z,13.12
2023-05-21T04:43:56.543Z,13.13
2023-05-21T04:46:27.055Z,13.16
2023-05-21T04:48:57.117Z,13.20
2023-05-21T04:51:27.081Z,13.16
2023-05-21T04:53:54.491Z,13.15
2023-05-21T04:56:26.495Z,13.21
2023-05-21T04:58:54.594Z,13.25
2023-05-21T05:01:27.226Z,13.28
2023-05-21T05:03:54.540Z,13.30
2023-05-21T05:06:22.512Z,13.28
2023-05-21T05:08:49.721Z,13.33
2023-05-21T05:11:16.871Z,13.37
2023-05-21T05:13:44.475Z,13.39
2023-05-21T05:16:13.088Z,13.41
2023-05-21T05:18:40.329Z,13.40
2023-05-21T05:21:07.388Z,13.47
2023-05-21T05:23:34.706Z,13.52
2023-05-21T05:26:01.834Z,13.58
2023-05-21T05:28:28.995Z,13.57
2023-05-21T05:30:56.078Z,13.63
2023-05-21T05:33:23.428Z,13.69
2023-05-21T05:35:50.481Z,13.74
2023-05-21T05:38:17.747Z,13.76
2023-05-21T05:40:44.911Z,13.73
2023-05-21T05:43:12.053Z,13.79
2023-05-21T05:45:39.358Z,13.80
2023-05-21T05:48:07.120Z,13.82
2023-05-21T05:50:34.292Z,13.87
2023-05-21T05:53:01.381Z,13.93
2023-05-21T05:55:28.803Z,13.98
2023-05-21T05:57:55.988Z,14.02
2023-05-21T06:00:23.313Z,14.08
2023-05-21T06:02:50.490Z,14.11
2023-05-21T06:05:17.833Z,14.20
2023-05-21T06:07:45.000Z,14.18
2023-05-21T06:10:12.182Z,14.24
2023-05-21T06:12:39.352Z,14.29
2023-05-21T06:15:07.023Z,14.33
2023-05-21T06:17:34.198Z,14.34
2023-05-21T06:20:01.315Z,14.38
2023-05-21T06:22:28.738Z,14.44
2023-05-21T06:24:55.874Z,14.53
2023-05-21T06:27:23.004Z,14.59
2023-05-21T06:29:50.086Z,14.63
2023-05-21T06:32:17.356Z,14.69
2023-05-21T06:34:44.502Z,14.73
2023-05-21T06:37:11.548Z,14.84
2023-05-21T06:39:38.624Z,14.95
2023-05-21T06:42:06.152Z,15.01
2023-05-21T06:44:33.226Z,15.02
2023-05-21T06:47:00.286Z,15.05
2023-05-21T06:49:27.326Z,15.09
2023-05-21T06:51:54.387Z,15.18
2023-05-21T06:54:21.540Z,15.25
2023-05-21T06:56:48.745Z,15.29
2023-05-21T06:59:16.040Z,15.34
2023-05-21T07:01:44.292Z,15.45
2023-05-21T07:04:11.834Z,15.53
2023-05-21T07:06:39.124Z,15.63
2023-05-21T07:09:06.366Z,15.72
2023-05-21T07:11:33.543Z,15.83
2023-05-21T07:14:01.894Z,15.86
2023-05-21T07:16:29.154Z,15.89
2023-05-21T07:18:56.324Z,15.94
2023-05-21T07:21:24.394Z,15.98
2023-05-21T07:23:51.490Z,16.07
2023-05-21T07:26:18.695Z,16.11
2023-05-21T07:28:46.065Z,16.13
2023-05-21T07:31:13.417Z,16.15
2023-05-21T07:33:40.759Z,16.19
2023-05-21T07:36:07.985Z,16.20
2023-05-21T07:38:35.406Z,16.26
2023-05-21T07:41:02.612Z,16.30
2023-05-21T07:43:29.734Z,16.38
2023-05-21T07:45:56.832Z,16.43
2023-05-21T07:48:24.034Z,16.49
2023-05-21T07:50:52.743Z,16.50
2023-05-21T07:53:20.226Z,16.53
2023-05-21T07:55:48.269Z,16.61
2023-05-21T07:58:17.454Z,16.71
2023-05-21T08:00:47.146Z,16.75
2023-05-21T08:03:18.315Z,16.80
2023-05-21T08:05:48.833Z,16.84
2023-05-21T08:08:17.554Z,16.89
2023-05-21T08:10:45.116Z,16.95
2023-05-21T08:13:13.216Z,16.96
2023-05-21T08:15:40.383Z,17.02
2023-05-21T08:18:07.729Z,17.06
2023-05-21T08:20:34.903Z,17.10
2023-05-21T08:23:02.089Z,17.10
2023-05-21T08:25:29.304Z,17.19
2023-05-21T08:27:56.581Z,17.26
2023-05-21T08:30:23.817Z,17.34
2023-05-21T08:32:50.947Z,17.43
2023-05-21T08:35:18.105Z,17.54
2023-05-21T08:37:45.192Z,17.58
2023-05-21T08:40:12.786Z,17.58
2023-05-21T08:42:44.722Z,17.67
2023-05-21T08:45:14.222Z,17.73
2023-05-21T08:47:43.751Z,17.82
2023-05-21T08:50:13.905Z,17.90
2023-05-21T08:52:41.542Z,17.96
2023-05-21T08:55:10.603Z,18.03
2023-05-21T08:57:38.329Z,18.09
2023-05-21T09:00:07.386Z,18.07
2023-05-21T09:02:35.161Z,18.10
2023-05-21T09:05:03.534Z,18.13
2023-05-21T09:07:31.941Z,18.14
2023-05-21T09:10:05.344Z,18.15
2023-05-21T09:12:32.947Z,18.09
2023-05-21T09:15:01.399Z,17.96
2023-05-21T09:17:29.054Z,17.99
2023-05-21T09:20:10.032Z,18.11
2023-05-21T09:22:40.488Z,18.11
2023-05-21T09:25:09.258Z,18.22
2023-05-21T09:27:36.635Z,18.40
2023-05-21T09:30:05.612Z,18.48
2023-05-21T09:32:32.799Z,18.57
2023-05-21T09:35:08.131Z,18.67
2023-05-21T09:37:47.469Z,18.76
2023-05-21T09:40:19.708Z,18.83
2023-05-21T09:42:51.539Z,18.91
2023-05-21T09:45:24.021Z,19.02
2023-05-21T09:47:53.147Z,19.07
2023-05-21T09:50:21.170Z,19.08
2023-05-21T09:52:50.575Z,19.13
2023-05-21T09:55:17.709Z,19.16
2023-05-21T09:57:48.139Z,19.20
2023-05-21T10:00:22.892Z,19.27
2023-05-21T10:02:55.125Z,19.29
2023-05-21T10:05:27.445Z,19.29
2023-05-21T10:08:02.887Z,19.32
2023-05-21T10:10:31.752Z,19.33
2023-05-21T10:13:07.082Z,19.44
2023-05-21T10:15:46.523Z,19.53
2023-05-21T10:18:15.549Z,19.55
2023-05-21T10:20:43.184Z,19.60
2023-05-21T10:23:10.847Z,19.58
2023-05-21T10:25:38.003Z,19.65
2023-05-21T10:28:07.237Z,19.71
2023-05-21T10:30:37.129Z,19.79
2023-05-21T10:33:04.758Z,19.87
2023-05-21T10:35:33.841Z,19.93
2023-05-21T10:38:04.749Z,19.99
2023-05-21T10:40:32.029Z,19.98
2023-05-21T10:43:14.779Z,20.09
2023-05-21T10:45:56.316Z,20.05
2023-05-21T10:48:29.705Z,20.12
2023-05-21T10:51:05.136Z,20.08
2023-05-21T10:53:48.454Z,20.14
2023-05-21T10:56:23.273Z,20.25
2023-05-21T10:59:15.501Z,20.41
2023-05-21T11:01:43.120Z,20.36
2023-05-21T11:04:12.434Z,20.45
2023-05-21T11:06:39.968Z,20.52
2023-05-21T11:09:14.263Z,20.51
2023-05-21T11:11:58.328Z,20.66
2023-05-21T11:14:39.819Z,20.58
2023-05-21T11:17:16.519Z,20.60
2023-05-21T11:19:47.551Z,20.64
2023-05-21T11:22:25.705Z,20.66
2023-05-21T11:24:54.836Z,20.64
2023-05-21T11:27:42.181Z,20.68
2023-05-21T11:30:16.937Z,20.59
2023-05-21T11:33:08.621Z,20.63
2023-05-21T11:35:47.834Z,20.57
2023-05-21T11:38:14.994Z,20.60
2023-05-21T11:40:55.458Z,20.62
2023-05-21T11:43:22.930Z,20.60
2023-05-21T11:45:53.001Z,20.70
2023-05-21T11:48:26.720Z,20.69
2023-05-21T11:50:54.964Z,20.75
2023-05-21T11:53:22.245Z,20.78
2023-05-21T11:55:50.865Z,20.89
2023-05-21T11:58:19.512Z,21.07
2023-05-21T12:03:14.564Z,21.13
2023-05-21T12:05:48.953Z,21.16
2023-05-21T12:08:27.922Z,21.21
2023-05-21T12:11:02.043Z,21.20
2023-05-21T12:13:29.289Z,21.28
2023-05-21T12:15:56.538Z,21.32
2023-05-21T12:18:25.299Z,21.34
2023-05-21T12:20:52.577Z,21.28
2023-05-21T12:23:28.428Z,21.21
2023-05-21T12:25:56.455Z,21.14
2023-05-21T12:28:24.985Z,21.16
2023-05-21T12:30:53.712Z,21.24
2023-05-21T12:33:23.118Z,21.31
2023-05-21T12:35:52.655Z,21.42
2023-05-21T12:38:19.898Z,21.55
2023-05-21T12:40:47.150Z,21.73
2023-05-21T12:43:14.260Z,21.86
2023-05-21T12:45:41.588Z,21.98
2023-05-21T12:48:09.011Z,21.90
2023-05-21T12:50:40.914Z,21.86
2023-05-21T12:53:09.647Z,21.98
2023-05-21T12:55:36.701Z,22.00
2023-05-21T12:58:09.359Z,21.95
2023-05-21T13:00:37.307Z,21.95
2023-05-21T13:03:06.819Z,21.96
2023-05-21T13:05:34.663Z,21.97
2023-05-21T13:08:02.117Z,21.94
2023-05-21T13:10:29.198Z,22.08
2023-05-21T13:12:56.728Z,22.20
2023-05-21T13:15:23.930Z,22.23
2023-05-21T13:17:52.044Z,22.28
2023-05-21T13:20:22.107Z,22.39
2023-05-21T13:22:51.188Z,22.43
2023-05-21T13:25:29.918Z,22.48
2023-05-21T13:27:58.372Z,22.55
2023-05-21T13:30:25.701Z,22.54
2023-05-21T13:32:53.083Z,22.50
2023-05-21T13:35:20.728Z,22.55
2023-05-21T13:37:48.095Z,22.58
2023-05-21T13:40:16.481Z,22.67
2023-05-21T13:42:49.001Z,22.73
2023-05-21T13:45:18.822Z,22.77
2023-05-21T13:47:46.976Z,22.90
2023-05-21T13:50:14.617Z,22.92
2023-05-21T13:52:42.236Z,22.94
2023-05-21T13:55:10.051Z,23.00
2023-05-21T13:57:37.339Z,23.15
2023-05-21T14:00:05.077Z,23.21
2023-05-21T14:02:32.324Z,23.26
2023-05-21T14:04:59.387Z,23.26
2023-05-21T14:07:27.140Z,23.13
2023-05-21T14:09:54.285Z,23.11
2023-05-21T14:12:21.909Z,23.22
2023-05-21T14:14:50.032Z,23.26
2023-05-21T14:17:17.170Z,23.26
2023-05-21T14:19:44.313Z,23.28
2023-05-21T14:22:11.473Z,23.37
2023-05-21T14:24:38.665Z,23.29
2023-05-21T14:27:05.876Z,23.28
2023-05-21T14:29:33.610Z,23.30
2023-05-21T14:32:00.864Z,23.39
2023-05-21T14:34:27.996Z,23.49
2023-05-21T14:36:55.070Z,23.62
2023-05-21T14:39:22.491Z,23.63
2023-05-21T14:41:50.307Z,23.57
2023-05-21T14:44:17.367Z,23.59
2023-05-21T14:46:44.455Z,23.53
2023-05-21T14:49:12.422Z,23.50
2023-05-21T14:51:39.530Z,23.51
2023-05-21T14:54:06.651Z,23.47
2023-05-21T14:56:33.734Z,23.45
2023-05-21T14:59:00.848Z,23.47
2023-05-21T15:01:28.147Z,23.49
2023-05-21T15:03:57.123Z,23.49
2023-05-21T15:06:24.551Z,23.49
2023-05-21T15:08:51.587Z,23.58
2023-05-21T15:11:18.677Z,23.85
2023-05-21T15:13:46.601Z,24.12
2023-05-21T15:16:13.805Z,24.42
2023-05-21T15:18:40.881Z,24.48
2023-05-21T15:21:08.105Z,24.63
2023-05-21T15:23:35.169Z,24.74
2023-05-21T15:26:02.282Z,24.75
2023-05-21T15:28:29.341Z,24.73
2023-05-21T15:30:56.520Z,24.71
2023-05-21T15:33:23.675Z,24.57
2023-05-21T15:35:51.105Z,24.43
2023-05-21T15:38:18.250Z,24.26
2023-05-21T15:40:45.392Z,24.15
2023-05-21T15:43:12.497Z,24.05
2023-05-21T15:45:39.843Z,24.00
2023-05-21T15:48:07.382Z,23.88
2023-05-21T15:50:35.947Z,23.79
2023-05-21T15:53:04.287Z,23.78
2023-05-21T15:55:35.091Z,23.80
2023-05-21T15:58:03.922Z,23.81
2023-05-21T16:00:31.079Z,23.81
2023-05-21T16:02:58.391Z,23.86
2023-05-21T16:05:26.306Z,23.83
2023-05-21T16:07:53.616Z,23.83
2023-05-21T16:10:21.674Z,23.80
2023-05-21T16:12:48.862Z,23.71
2023-05-21T16:15:16.133Z,23.65
2023-05-21T16:17:43.254Z,23.60
2023-05-21T16:20:10.900Z,23.56
2023-05-21T16:22:38.023Z,23.50
2023-05-21T16:25:05.666Z,23.52
2023-05-21T16:27:32.782Z,23.48
2023-05-21T16:30:00.050Z,23.48
2023-05-21T16:32:28.631Z,23.39
2023-05-21T16:34:55.871Z,23.35
2023-05-21T16:37:22.961Z,23.42
2023-05-21T16:39:50.091Z,23.39
2023-05-21T16:42:17.164Z,23.39
2023-05-21T16:44:44.257Z,23.37
2023-05-21T16:47:11.298Z,23.32
2023-05-21T16:49:38.453Z,23.35
2023-05-21T16:52:05.861Z,23.27
2023-05-21T16:54:33.682Z,23.24
2023-05-21T16:57:01.181Z,23.17
2023-05-21T16:59:28.826Z,23.22
2023-05-21T17:01:55.960Z,23.26
2023-05-21T17:04:23.299Z,23.26
2023-05-21T17:06:50.456Z,23.26
2023-05-21T17:09:18.793Z,23.25
2023-05-21T17:11:46.202Z,23.32
2023-05-21T17:14:17.536Z,23.25
2023-05-21T17:16:50.947Z,23.24
2023-05-21T17:19:18.008Z,23.15
2023-05-21T17:21:45.100Z,23.14
2023-05-21T17:24:12.497Z,23.08
2023-05-21T17:26:39.659Z,23.01
2023-05-21T17:29:06.719Z,22.98
2023-05-21T17:31:34.191Z,22.92
2023-05-21T17:34:01.376Z,22.90
2023-05-21T17:36:28.737Z,22.88
2023-05-21T17:38:55.850Z,22.84
2023-05-21T17:41:23.684Z,22.78
2023-05-21T17:43:50.936Z,22.77
2023-05-21T17:46:18.789Z,22.76
2023-05-21T17:48:46.017Z,22.75
2023-05-21T17:51:13.330Z,22.74
2023-05-21T17:53:41.316Z,22.74
2023-05-21T17:56:08.520Z,22.68
2023-05-21T17:58:35.569Z,22.65
2023-05-21T18:01:02.922Z,22.61
2023-05-21T18:03:30.218Z,22.56
2023-05-21T18:05:57.295Z,22.53
2023-05-21T18:08:24.428Z,22.49
2023-05-21T18:10:51.492Z,22.46
2023-05-21T18:13:18.575Z,22.43
2023-05-21T18:15:45.727Z,22.36
2023-05-21T18:18:20.567Z,22.32
2023-05-21T18:20:49.526Z,22.27
2023-05-21T18:23:20.956Z,22.24
2023-05-21T18:25:48.190Z,22.19
2023-05-21T18:28:15.291Z,22.17
2023-05-21T18:30:42.435Z,22.13
2023-05-21T18:33:09.648Z,22.10
2023-05-21T18:35:36.781Z,22.08
2023-05-21T18:38:04.404Z,22.07
2023-05-21T18:40:33.374Z,21.99
2023-05-21T18:43:01.019Z,22.02
2023-05-21T18:45:28.324Z,21.98
2023-05-21T18:47:55.896Z,21.94
2023-05-21T18:50:23.078Z,21.88
2023-05-21T18:52:56.359Z,21.86
2023-05-21T18:55:23.614Z,21.72
2023-05-21T18:57:51.028Z,21.63
2023-05-21T19:00:18.532Z,21.72
2023-05-21T19:02:46.912Z,21.73
2023-05-21T19:05:14.633Z,21.75
2023-05-21T19:07:42.124Z,21.79
2023-05-21T19:10:10.952Z,21.79
2023-05-21T19:12:39.691Z,21.74
2023-05-21T19:15:07.610Z,21.70
2023-05-21T19:17:36.332Z,21.66
2023-05-21T19:20:05.583Z,21.68
2023-05-21T19:22:32.915Z,21.63
2023-05-21T19:25:00.850Z,21.60
2023-05-21T19:27:29.571Z,21.58
2023-05-21T19:29:56.774Z,21.52
2023-05-21T19:32:24.110Z,21.52
2023-05-21T19:34:52.371Z,21.46
2023-05-21T19:37:19.626Z,21.42
2023-05-21T19:39:50.257Z,21.41
2023-05-21T19:42:21.616Z,21.37
2023-05-21T19:44:48.869Z,21.36
2023-05-21T19:47:16.119Z,21.35
2023-05-21T19:49:43.423Z,21.33
2023-05-21T19:52:10.713Z,21.31
2023-05-21T19:54:37.879Z,21.27
2023-05-21T19:57:05.273Z,21.20
2023-05-21T19:59:32.723Z,21.18
2023-05-21T20:01:59.845Z,21.17
2023-05-21T20:04:27.349Z,21.15
2023-05-21T20:06:54.752Z,21.11
2023-05-21T20:09:22.027Z,21.04
2023-05-21T20:11:49.169Z,21.03
2023-05-21T20:14:16.470Z,20.98
2023-05-21T20:16:47.160Z,20.99
2023-05-21T20:19:17.357Z,20.96
2023-05-21T20:21:44.814Z,20.92
2023-05-21T20:24:11.964Z,20.91
2023-05-21T20:26:40.138Z,20.88
2023-05-21T20:29:08.190Z,20.86
2023-05-21T20:31:36.171Z,20.84
2023-05-21T20:34:07.901Z,20.85
2023-05-21T20:36:36.177Z,20.84
2023-05-21T20:39:03.449Z,20.80
2023-05-21T20:41:39.824Z,20.77
2023-05-21T20:44:06.964Z,20.72
2023-05-21T20:46:41.331Z,20.73
2023-05-21T20:49:09.932Z,20.71
2023-05-21T20:51:37.252Z,20.70
2023-05-21T20:54:04.592Z,20.67
2023-05-21T20:56:41.524Z,20.67
2023-05-21T20:59:11.375Z,20.62
2023-05-21T21:01:39.446Z,20.61
2023-05-21T21:04:06.855Z,20.58
2023-05-21T21:06:35.080Z,20.58
2023-05-21T21:09:02.305Z,20.56
2023-05-21T21:11:29.667Z,20.53
2023-05-21T21:13:59.936Z,20.51
2023-05-21T21:16:27.126Z,20.51
2023-05-21T21:18:54.514Z,20.47
2023-05-21T21:21:22.176Z,20.45
2023-05-21T21:23:49.950Z,20.42
2023-05-21T21:26:17.902Z,20.39
2023-05-21T21:28:46.512Z,20.39
2023-05-21T21:31:14.254Z,20.35
2023-05-21T21:33:41.448Z,20.31
2023-05-21T21:36:12.461Z,20.31
2023-05-21T21:38:39.494Z,20.29
2023-05-21T21:41:07.895Z,20.24
2023-05-21T21:43:35.015Z,20.21
2023-05-21T21:46:02.304Z,20.20
2023-05-21T21:48:29.608Z,20.19
2023-05-21T21:50:57.083Z,20.14
2023-05-21T21:53:24.212Z,20.10
2023-05-21T21:55:51.775Z,20.08
2023-05-21T21:58:19.161Z,20.04
2023-05-21T22:00:46.479Z,20.03
2023-05-21T22:03:14.773Z,20.01
2023-05-21T22:05:42.784Z,20.00
2023-05-21T22:08:10.229Z,19.98
2023-05-21T22:10:38.564Z,19.94
2023-05-21T22:13:05.910Z,19.91
2023-05-21T22:15:33.016Z,19.91
2023-05-21T22:18:02.539Z,19.90
2023-05-21T22:20:29.907Z,19.89
2023-05-21T22:22:57.650Z,19.85
2023-05-21T22:25:24.930Z,19.83
2023-05-21T22:27:52.622Z,19.82
2023-05-21T22:30:20.298Z,19.81
2023-05-21T22:32:48.769Z,19.81
2023-05-21T22:35:16.042Z,19.81
2023-05-21T22:37:43.110Z,19.84
2023-05-21T22:40:10.596Z,19.86
2023-05-21T22:42:38.503Z,19.87
2023-05-21T22:45:06.057Z,19.88
2023-05-21T22:47:33.188Z,19.86
2023-05-21T22:50:04.453Z,19.88
2023-05-21T22:52:32.116Z,19.90
2023-05-21T22:55:00.797Z,19.91
2023-05-21T22:57:28.177Z,19.97
2023-05-21T22:59:55.304Z,20.01
2023-05-21T23:02:22.579Z,20.07
2023-05-21T23:04:49.853Z,20.11
2023-05-21T23:07:17.013Z,20.15
2023-05-21T23:09:44.012Z,20.16
2023-05-21T23:12:11.315Z,20.17
2023-05-21T23:14:38.396Z,20.20
2023-05-21T23:17:05.794Z,20.20
2023-05-21T23:19:33.100Z,20.20
2023-05-21T23:22:00.687Z,20.20
2023-05-21T23:24:29.722Z,20.20
2023-05-21T23:27:02.066Z,20.21
2023-05-21T23:29:30.501Z,20.22
2023-05-21T23:31:58.274Z,20.23
2023-05-21T23:34:25.939Z,20.23
2023-05-21T23:36:53.092Z,20.23
2023-05-21T23:39:20.167Z,20.20
2023-05-21T23:41:47.302Z,20.19
2023-05-21T23:44:15.606Z,20.20
2023-05-21T23:46:45.868Z,20.25
2023-05-21T23:49:13.056Z,20.21
2023-05-21T23:51:40.179Z,20.21
2023-05-21T23:54:08.275Z,20.21
2023-05-21T23:56:35.653Z,20.19
2023-05-21T23:59:02.771Z,20.21
